Detall de PIREP

Printer-friendly versionPDF version

[2010/08/17 16:05:00]
Flight IATA:CT0001
Pilot Number:041
Company ICAO:CAT
Aircraft Type:F28/A
PAX:75
Departing Airport: LEMH
Destination Airport: LEGE
Alternate Airport:LEDA
Online: VATSIM
Route: SARGO2G A67 VERSO A67 AGENA A67 DALIN A67 BGR2F
Flight Level:FL140
No Slew and time accel
No pause
Crash detect
Detect pilot in Cockpit between each 30 and 45 minutes
16:05 Zero fuel Weight: 58826 Lbs, Fuel Weight: 13540 Lbs
16:05 VATSIM:LEMH 171530Z 17006KT 130V230 9999 FEW035 26/16 Q1017
16:05 VATSIM:LEGE 171530Z 17013KT 130V210 9999 FEW030 27/20 Q1015
16:05 VOICE CATALONIAN
16:07 Parking Brakes off
16:18 Take-off
16:18 Take off Weight: 71799 Lbs
16:18 Wind: 181º @ 005 Knots Heading: 188º
16:18 POS N39º 51´ 19´´ E004º 13´ 01´´
16:18 Gear Up: 175 Knots
16:18 Flaps:2 at 175 Knots
16:18 Flaps:1 at 196 Knots
16:18 Flaps:0 at 216 Knots
16:26 TOC
16:26 Fuel Weight: 11809 Lb
16:33 Wind:240º@013 Knots Heading: 342º Ground Speed: 366 Knots Altitude 14081 ft
16:41 TOD
16:41 Fuel Weight: 10703 Lb
16:48 Wind:216º@003 Knots Heading: 301º Ground Speed: 220 Knots Altitude 4484 ft
16:50 Flaps:1 at 212 Knots
16:55 Flaps:2 at 194 Knots
16:57 Flaps:3 at 180 Knots
16:57 Gear Down: 171 Knots
17:01 TouchDown:Rate -230 ft/min Speed: 137 Knots
17:01 VATSIM:LEGE 171630Z 19014KT 9999 FEW030 27/20 Q1014
17:01 Land
17:01 Wind:159º@012 Knots
17:01 Heading: 196º
17:01 Flight Duration: 00:43
17:01 Landing Weight: 68531 Lbs
17:01 POS N41º 54´ 17´´ E002º 45´ 43´´
17:04 Parking brakes on
17:04 Block to Block Duration: 00:57
17:04 Final Fuel: 9598 Lbls
17:04 Spent Fuel: 3941 Lbls
17:04 Flight Length: 203 NM
17:04 TOD Land Length: 75 NM

Exportar CSV

Powered by Drupal - Modified by Danger4k